Photometre #347[NE_1.6] Troodos_CAO AOT

File : 20220827_347.hum

27/08/2022,04:02:05,TEMP=15.3,BA=5.64,STAT.A=0.5,ExtBa=13.98
27/08/2022,04:05:13,TEMP=15.7,BA=5.64,STAT.A=0.5,ExtBa=13.91
27/08/2022,04:08:52,TEMP=16.0,BA=5.64,STAT.A=0.5,ExtBa=13.85
27/08/2022,04:13:12,TEMP=16.2,BA=5.56,STAT.A=0.5,ExtBa=13.84
27/08/2022,04:18:24,TEMP=16.4,BA=5.56,STAT.A=0.5,ExtBa=13.83
27/08/2022,04:24:46,TEMP=16.7,BA=5.64,STAT.A=0.5,ExtBa=13.87
27/08/2022,04:32:46,TEMP=17.2,BA=5.64,STAT.B=0.5,ExtBa=13.92
27/08/2022,04:41:32,TEMP=18.0,BA=5.48,STAT.A=0.5,ExtBa=12.77
27/08/2022,04:43:27,TEMP=18.3,BA=5.48,STAT.A=0.5,ExtBa=12.77
27/08/2022,04:45:36,TEMP=18.6,BA=5.48,STAT.A=0.5,ExtBa=12.78
27/08/2022,04:50:59,TEMP=18.6,BA=5.64,STAT.A=0.5,ExtBa=12.99
27/08/2022,04:57:08,TEMP=18.9,BA=5.64,STAT.C=0.5,ExtBa=13.19
27/08/2022,05:10:42,TEMP=20.4,BA=5.44,STAT.A=0.5,ExtBa=12.76
27/08/2022,05:12:35,TEMP=20.6,BA=5.44,STAT.A=0.5,ExtBa=12.81
27/08/2022,05:22:19,TEMP=20.5,BA=5.64,STAT.A=0.5,ExtBa=13.20
27/08/2022,05:34:08,TEMP=21.1,BA=5.64,STAT.A=0.5,ExtBa=13.42
27/08/2022,05:48:43,TEMP=21.5,BA=5.64,STAT.B=0.5,ExtBa=13.53
27/08/2022,06:18:44,TEMP=22.4,BA=5.64,STAT.B=0.5,ExtBa=13.51
27/08/2022,06:27:21,TEMP=22.9,BA=5.48,STAT.D=0.5,ExtBa=12.85
27/08/2022,06:35:48,TEMP=22.4,BA=5.64,STAT.D=0.5,ExtBa=13.21
27/08/2022,06:50:50,TEMP=21.8,BA=5.64,STAT.F,ExtBa=13.43
27/08/2022,07:05:48,TEMP=23.3,BA=5.44,STAT.D=0.5,ExtBa=12.91
27/08/2022,07:20:49,TEMP=22.9,BA=5.64,STAT.D=0.5,ExtBa=13.36
27/08/2022,07:35:49,TEMP=22.6,BA=5.64,STAT.D=0.5,ExtBa=13.50
27/08/2022,07:50:51,TEMP=20.8,BA=5.64,STAT.F,ExtBa=13.57
27/08/2022,08:05:49,TEMP=20.4,BA=5.48,STAT.D=0.5,ExtBa=13.39
27/08/2022,08:20:49,TEMP=20.5,BA=5.64,STAT.D=0.5,ExtBa=13.59
27/08/2022,08:35:49,TEMP=20.5,BA=5.64,STAT.D=0.5,ExtBa=13.74
27/08/2022,08:50:51,TEMP=20.4,BA=5.64,STAT.F,ExtBa=13.81
27/08/2022,09:05:49,TEMP=20.4,BA=5.64,STAT.D=0.5,ExtBa=13.86
27/08/2022,09:20:49,TEMP=20.5,BA=5.64,STAT.D=0.5,ExtBa=13.88
27/08/2022,09:35:49,TEMP=22.8,BA=5.64,STAT.D=0.5,ExtBa=13.88
27/08/2022,09:50:51,TEMP=22.0,BA=5.64,STAT.F,ExtBa=13.85
27/08/2022,10:05:49,TEMP=21.6,BA=5.64,STAT.D=0.5,ExtBa=13.87
27/08/2022,10:20:49,TEMP=22.1,BA=5.64,STAT.D=0.5,ExtBa=13.87
27/08/2022,10:35:49,TEMP=23.0,BA=5.64,STAT.D=0.5,ExtBa=13.87
27/08/2022,10:50:51,TEMP=23.6,BA=5.64,STAT.F,ExtBa=13.83
27/08/2022,11:05:49,TEMP=24.1,BA=5.64,STAT.D=0.5,ExtBa=13.71
27/08/2022,11:20:49,TEMP=22.6,BA=5.64,STAT.D=0.5,ExtBa=13.81
27/08/2022,11:35:49,TEMP=21.4,BA=5.64,STAT.D=0.5,ExtBa=13.84
27/08/2022,11:50:50,TEMP=21.2,BA=5.64,STAT.F,ExtBa=13.81
27/08/2022,12:05:49,TEMP=22.6,BA=5.64,STAT.D=0.5,ExtBa=13.82
27/08/2022,12:20:49,TEMP=22.9,BA=5.64,STAT.D=0.5,ExtBa=13.82
27/08/2022,12:35:48,TEMP=22.5,BA=5.64,STAT.D=0.5,ExtBa=13.82
27/08/2022,12:50:50,TEMP=20.6,BA=5.64,STAT.F,ExtBa=13.79
27/08/2022,13:05:48,TEMP=19.8,BA=5.64,STAT.D=0.5,ExtBa=13.81
27/08/2022,13:20:48,TEMP=20.4,BA=5.64,STAT.D=0.5,ExtBa=13.81
27/08/2022,13:22:56,TEMP=20.9,BA=5.64,STAT.B=0.5,ExtBa=13.67
27/08/2022,13:52:56,TEMP=21.8,BA=5.64,STAT.B=0.5,ExtBa=13.61
27/08/2022,14:07:31,TEMP=20.7,BA=5.64,STAT.A=0.5,ExtBa=13.80
27/08/2022,14:19:19,TEMP=21.6,BA=5.64,STAT.A=0.5,ExtBa=13.83
27/08/2022,14:29:07,TEMP=20.3,BA=5.48,STAT.A=0.5,ExtBa=13.83
27/08/2022,14:37:24,TEMP=19.3,BA=5.48,STAT.A=0.5,ExtBa=13.82
27/08/2022,14:44:30,TEMP=18.5,BA=5.64,STAT.C=0.5,ExtBa=13.82
27/08/2022,14:50:39,TEMP=18.0,BA=5.64,STAT.A=0.5,ExtBa=13.81
27/08/2022,14:57:29,TEMP=18.0,BA=5.64,STAT.A=0.5,ExtBa=13.81
27/08/2022,15:00:48,TEMP=18.2,BA=5.64,STAT.A=0.5,ExtBa=13.76
27/08/2022,15:05:03,TEMP=18.2,BA=5.64,STAT.A=0.5,ExtBa=13.74
27/08/2022,15:08:52,TEMP=18.3,BA=5.64,STAT.B=0.5,ExtBa=13.66
27/08/2022,15:17:50,TEMP=18.2,BA=5.48,STAT.A=0.5,ExtBa=12.82
27/08/2022,15:23:14,TEMP=18.1,BA=5.64,STAT.A=0.5,ExtBa=13.10
27/08/2022,15:28:25,TEMP=18.1,BA=5.64,STAT.A=0.5,ExtBa=13.23
27/08/2022,15:32:45,TEMP=18.0,BA=5.56,STAT.A=0.5,ExtBa=13.27
27/08/2022,15:36:25,TEMP=17.8,BA=5.56,STAT.A=0.5,ExtBa=13.21
27/08/2022,15:39:32,TEMP=17.6,BA=5.56,STAT.A=0.5,ExtBa=13.25